Time;durP1;ratioP1;P1;durP2;ratioP2;P2;SDS_P1;SDS_P2;PMS_P1;PMS_P2;Temp;Humidity;BMP_temperature;BMP_pressure;BME280_temperature;BME280_humidity;BME280_pressure;Samples;Min_cycle;Max_cycle;Signal;HPM_P1;HPM_P2
2022/05/15 00:00:38;;;;;;;18.90;2.50;;;;;;;;;;4998690;28;20058;-49
2022/05/15 00:03:24;;;;;;;12.15;2.42;;;;;;;;;;4995346;28;20046;-50
2022/05/15 00:06:01;;;;;;;11.68;2.63;;;;;;;;;;5000156;28;20096;-52
2022/05/15 00:08:36;;;;;;;16.85;2.63;;;;;;;;;;4999358;28;20524;-53
2022/05/15 00:11:02;;;;;;;16.88;2.20;;;;;;;;;;4999954;28;20494;-50
2022/05/15 00:13:29;;;;;;;16.60;2.67;;;;;;;;;;4997898;28;20489;-52
2022/05/15 00:16:03;;;;;;;19.65;2.40;;;;;;;;;;4996303;28;20800;-49
2022/05/15 00:18:29;;;;;;;8.07;1.77;;;;;;;;;;4998842;28;20084;-53
2022/05/15 00:20:56;;;;;;;9.45;2.17;;;;;;;;;;4983771;28;20658;-51
2022/05/15 00:23:29;;;;;;;10.75;2.22;;;;;;;;;;4998663;28;20050;-51
2022/05/15 00:25:56;;;;;;;8.00;2.30;;;;;;;;;;5000110;28;20137;-53
2022/05/15 00:28:22;;;;;;;16.65;2.22;;;;;;;;;;4999715;28;20086;-52
2022/05/15 00:30:55;;;;;;;13.00;2.25;;;;;;;;;;4997933;28;20045;-50
2022/05/15 00:33:22;;;;;;;11.50;2.30;;;;;;;;;;4999675;28;20060;-53
2022/05/15 00:35:48;;;;;;;16.67;2.30;;;;;;;;;;5000268;28;20498;-51
2022/05/15 00:38:21;;;;;;;11.27;2.40;;;;;;;;;;4995797;28;20410;-52
2022/05/15 00:40:48;;;;;;;10.47;2.20;;;;;;;;;;4999284;28;20528;-48
2022/05/15 00:43:36;;;;;;;13.57;2.50;;;;;;;;;;4998807;28;20136;-47
2022/05/15 00:46:13;;;;;;;11.27;2.00;;;;;;;;;;4999932;28;20078;-52
2022/05/15 00:48:40;;;;;;;13.25;2.08;;;;;;;;;;4998018;28;20489;-51
2022/05/15 00:51:11;;;;;;;9.13;1.98;;;;;;;;;;4997465;28;20046;-48
2022/05/15 00:53:48;;;;;;;11.38;2.25;;;;;;;;;;4997919;28;20100;-45
2022/05/15 00:56:15;;;;;;;16.95;2.72;;;;;;;;;;4998462;28;20132;-48
2022/05/15 00:58:45;;;;;;;9.55;1.95;;;;;;;;;;5002196;28;20230;-47
2022/05/15 01:01:25;;;;;;;10.95;2.28;;;;;;;;;;4997759;28;20053;-46
2022/05/15 01:03:51;;;;;;;15.20;1.95;;;;;;;;;;5000486;28;20053;-46
2022/05/15 01:06:25;;;;;;;9.32;1.98;;;;;;;;;;4996691;28;20042;-48
2022/05/15 01:08:52;;;;;;;10.98;2.22;;;;;;;;;;5001350;28;20081;-52
2022/05/15 01:11:19;;;;;;;14.40;2.50;;;;;;;;;;4998233;28;20085;-49
2022/05/15 01:13:52;;;;;;;11.70;2.03;;;;;;;;;;4998875;28;20073;-49
2022/05/15 01:16:20;;;;;;;13.57;2.00;;;;;;;;;;4999645;28;20038;-46
2022/05/15 01:18:47;;;;;;;10.13;1.88;;;;;;;;;;5002172;28;20048;-54
2022/05/15 01:21:22;;;;;;;12.00;2.17;;;;;;;;;;5000288;28;20077;-51
2022/05/15 01:23:50;;;;;;;12.63;2.22;;;;;;;;;;4996570;28;20042;-51
2022/05/15 01:26:16;;;;;;;10.88;2.05;;;;;;;;;;4998450;28;20469;-52
2022/05/15 01:28:51;;;;;;;8.75;1.85;;;;;;;;;;5002856;28;20487;-56
2022/05/15 01:31:17;;;;;;;12.18;2.28;;;;;;;;;;5001694;28;20073;-53
2022/05/15 01:33:50;;;;;;;12.02;2.10;;;;;;;;;;4996554;28;20049;-55
2022/05/15 01:36:23;;;;;;;16.90;2.45;;;;;;;;;;5000123;28;20073;-52
2022/05/15 01:38:50;;;;;;;22.48;3.17;;;;;;;;;;4999574;28;20050;-53
2022/05/15 01:41:16;;;;;;;16.38;2.20;;;;;;;;;;4996195;28;20050;-56
2022/05/15 01:43:53;;;;;;;9.25;2.10;;;;;;;;;;5002208;28;20073;-51
2022/05/15 01:46:24;;;;;;;11.50;2.00;;;;;;;;;;4999096;28;20085;-54
2022/05/15 01:48:59;;;;;;;9.98;1.70;;;;;;;;;;5001951;28;20042;-50
2022/05/15 01:51:26;;;;;;;11.77;2.03;;;;;;;;;;4998213;28;20050;-50
2022/05/15 01:53:52;;;;;;;11.95;2.75;;;;;;;;;;4998236;28;20080;-49
2022/05/15 01:56:25;;;;;;;12.20;2.40;;;;;;;;;;5001563;28;20104;-47
2022/05/15 01:58:51;;;;;;;15.75;2.28;;;;;;;;;;5000723;28;20184;-51
2022/05/15 02:01:18;;;;;;;9.95;2.40;;;;;;;;;;5000702;28;20085;-47
2022/05/15 02:03:51;;;;;;;9.93;2.05;;;;;;;;;;4999936;28;20056;-50
2022/05/15 02:06:18;;;;;;;16.77;2.30;;;;;;;;;;5002744;28;20061;-48
2022/05/15 02:08:44;;;;;;;14.35;2.30;;;;;;;;;;5002327;28;20046;-49
2022/05/15 02:11:17;;;;;;;13.48;2.05;;;;;;;;;;5001384;28;20152;-47
2022/05/15 02:13:43;;;;;;;10.98;2.20;;;;;;;;;;5003190;28;20084;-46
2022/05/15 02:16:10;;;;;;;15.77;2.97;;;;;;;;;;4999495;28;20053;-51
2022/05/15 02:18:44;;;;;;;11.32;2.00;;;;;;;;;;5001436;28;20141;-50
2022/05/15 02:21:11;;;;;;;10.57;1.95;;;;;;;;;;4999992;28;20054;-54
2022/05/15 02:23:37;;;;;;;7.22;2.13;;;;;;;;;;5001966;28;20103;-52
2022/05/15 02:26:10;;;;;;;12.60;2.05;;;;;;;;;;4999255;28;20069;-49
2022/05/15 02:28:37;;;;;;;15.38;2.33;;;;;;;;;;5001966;28;20532;-50
2022/05/15 02:31:04;;;;;;;13.77;2.80;;;;;;;;;;5000827;28;20113;-50
2022/05/15 02:33:37;;;;;;;11.30;2.08;;;;;;;;;;5001396;28;20046;-52
2022/05/15 02:36:04;;;;;;;17.58;2.60;;;;;;;;;;5001502;28;20477;-49
2022/05/15 02:38:30;;;;;;;13.90;1.88;;;;;;;;;;5001314;28;20085;-52
2022/05/15 02:41:03;;;;;;;17.92;2.83;;;;;;;;;;4999055;28;20104;-50
2022/05/15 02:43:30;;;;;;;14.20;2.05;;;;;;;;;;4998911;28;20058;-47
2022/05/15 02:45:56;;;;;;;16.85;2.53;;;;;;;;;;4997755;28;20129;-51
2022/05/15 02:51:14;;;;;;;19.83;2.63;;;;;;;;;;5001172;28;20161;-49
2022/05/15 02:53:48;;;;;;;8.60;1.98;;;;;;;;;;5000757;28;20219;-47
2022/05/15 02:56:19;;;;;;;14.02;2.47;;;;;;;;;;5002514;28;20081;-49
2022/05/15 02:58:46;;;;;;;8.93;2.00;;;;;;;;;;4999386;28;20085;-45
2022/05/15 03:01:25;;;;;;;8.10;1.80;;;;;;;;;;5000519;28;20046;-52
2022/05/15 03:03:59;;;;;;;12.25;1.98;;;;;;;;;;5001399;28;20060;-52
2022/05/15 03:06:33;;;;;;;12.50;2.22;;;;;;;;;;5000008;28;20121;-50
2022/05/15 03:08:59;;;;;;;10.77;2.40;;;;;;;;;;5002452;28;20069;-51
2022/05/15 03:11:25;;;;;;;16.92;2.20;;;;;;;;;;4996423;28;20156;-53
2022/05/15 03:13:59;;;;;;;15.40;2.42;;;;;;;;;;5003073;28;20116;-50
2022/05/15 03:16:28;;;;;;;7.25;2.10;;;;;;;;;;4997323;28;20082;-53
2022/05/15 03:18:55;;;;;;;13.18;2.70;;;;;;;;;;5002176;28;20141;-53
2022/05/15 03:21:28;;;;;;;12.65;2.33;;;;;;;;;;4997320;28;20050;-52
2022/05/15 03:23:56;;;;;;;9.07;2.30;;;;;;;;;;4997888;28;20493;-55
2022/05/15 03:26:23;;;;;;;6.53;2.53;;;;;;;;;;5000250;28;20073;-52
2022/05/15 03:28:56;;;;;;;7.85;2.30;;;;;;;;;;5003687;28;20073;-56
2022/05/15 03:31:23;;;;;;;10.63;2.33;;;;;;;;;;5000059;28;20077;-54
2022/05/15 03:33:49;;;;;;;16.23;2.45;;;;;;;;;;4997513;28;20387;-53
2022/05/15 03:36:22;;;;;;;16.73;2.33;;;;;;;;;;5000856;28;20509;-53
2022/05/15 03:38:49;;;;;;;12.45;2.33;;;;;;;;;;4999017;28;20089;-53
2022/05/15 03:41:15;;;;;;;10.80;2.35;;;;;;;;;;5001110;28;20130;-53
2022/05/15 03:43:48;;;;;;;15.45;2.35;;;;;;;;;;5003068;28;20077;-55
2022/05/15 03:46:15;;;;;;;13.38;1.98;;;;;;;;;;5000708;28;20108;-54
2022/05/15 03:48:41;;;;;;;10.18;2.10;;;;;;;;;;4999390;28;20441;-55
2022/05/15 03:51:16;;;;;;;13.45;2.42;;;;;;;;;;4998940;28;20104;-52
2022/05/15 03:53:42;;;;;;;10.32;1.98;;;;;;;;;;4998505;28;20097;-54
2022/05/15 03:56:09;;;;;;;9.27;2.17;;;;;;;;;;5001333;28;20466;-51
2022/05/15 03:58:48;;;;;;;7.45;1.70;;;;;;;;;;4998023;28;20129;-46
2022/05/15 04:01:20;;;;;;;10.32;2.00;;;;;;;;;;5001655;28;20107;-50
2022/05/15 04:03:55;;;;;;;10.18;2.25;;;;;;;;;;5000954;28;20042;-51
2022/05/15 04:06:22;;;;;;;;;;;;;;;;;;4997447;28;20056;-48
2022/05/15 04:08:48;;;;;;;9.43;1.45;;;;;;;;;;5000574;28;19925;-48
2022/05/15 04:11:21;;;;;;;5.80;1.25;;;;;;;;;;5001086;28;20547;-47
2022/05/15 04:13:48;;;;;;;6.07;1.42;;;;;;;;;;4998905;28;20089;-53
2022/05/15 04:16:14;;;;;;;9.75;1.70;;;;;;;;;;4998294;28;20136;-54
2022/05/15 04:18:47;;;;;;;4.85;1.25;;;;;;;;;;4998162;28;20449;-56
2022/05/15 04:21:14;;;;;;;2.75;0.80;;;;;;;;;;5001314;28;20077;-56
2022/05/15 04:23:41;;;;;;;2.30;1.38;;;;;;;;;;4997085;28;20116;-55
2022/05/15 04:26:14;;;;;;;9.77;1.48;;;;;;;;;;4999738;28;20101;-56
2022/05/15 04:28:41;;;;;;;8.25;1.65;;;;;;;;;;4999057;28;20160;-56
2022/05/15 04:31:08;;;;;;;4.65;1.25;;;;;;;;;;5000909;28;20046;-57
2022/05/15 04:33:41;;;;;;;5.43;1.60;;;;;;;;;;4997478;28;20137;-56
2022/05/15 04:36:08;;;;;;;5.38;1.15;;;;;;;;;;4994964;28;20046;-52
2022/05/15 04:38:34;;;;;;;4.80;1.58;;;;;;;;;;4998549;28;20058;-56
2022/05/15 04:41:07;;;;;;;5.57;1.20;;;;;;;;;;4996420;28;21738;-56
2022/05/15 04:43:34;;;;;;;5.93;1.17;;;;;;;;;;4996453;28;20054;-54
2022/05/15 04:46:03;;;;;;;3.28;0.98;;;;;;;;;;4994997;28;20046;-55
2022/05/15 04:48:37;;;;;;;3.40;1.00;;;;;;;;;;4992752;28;20482;-55
2022/05/15 04:51:03;;;;;;;4.90;1.50;;;;;;;;;;4996857;28;20050;-55
2022/05/15 04:53:30;;;;;;;3.38;1.35;;;;;;;;;;4994080;28;20046;-54
2022/05/15 04:56:03;;;;;;;2.05;1.33;;;;;;;;;;4998247;28;20045;-52
2022/05/15 04:58:30;;;;;;;8.40;1.40;;;;;;;;;;4997617;28;20517;-49
2022/05/15 05:00:56;;;;;;;5.97;1.65;;;;;;;;;;4999423;28;20140;-45
2022/05/15 05:03:29;;;;;;;6.43;1.83;;;;;;;;;;4998300;28;20073;-49
2022/05/15 05:05:56;;;;;;;4.80;1.53;;;;;;;;;;5000124;28;20085;-46
2022/05/15 05:08:22;;;;;;;4.55;1.55;;;;;;;;;;4997213;28;20132;-45
2022/05/15 05:10:55;;;;;;;3.63;1.70;;;;;;;;;;4998380;28;20367;-46
2022/05/15 05:13:22;;;;;;;4.85;1.50;;;;;;;;;;4999624;28;20089;-56
2022/05/15 05:15:48;;;;;;;2.67;0.93;;;;;;;;;;4998651;28;20494;-53
2022/05/15 05:18:21;;;;;;;3.55;1.08;;;;;;;;;;4996583;28;20109;-49
2022/05/15 05:20:48;;;;;;;3.45;1.30;;;;;;;;;;4996224;28;20137;-51
2022/05/15 05:23:14;;;;;;;3.10;0.82;;;;;;;;;;4998314;28;20081;-48
2022/05/15 05:25:47;;;;;;;4.65;1.08;;;;;;;;;;4998950;28;20092;-51
2022/05/15 05:28:14;;;;;;;2.90;1.23;;;;;;;;;;4995929;28;20091;-50
2022/05/15 05:30:41;;;;;;;2.75;0.80;;;;;;;;;;4994666;28;20141;-51
2022/05/15 05:33:14;;;;;;;1.02;0.70;;;;;;;;;;4998190;28;20456;-51
2022/05/15 05:35:41;;;;;;;2.30;1.10;;;;;;;;;;4997289;28;20133;-50
2022/05/15 05:38:07;;;;;;;5.17;1.13;;;;;;;;;;4998420;28;20093;-51
2022/05/15 05:40:40;;;;;;;2.45;0.93;;;;;;;;;;4999840;28;20078;-46
2022/05/15 05:43:08;;;;;;;2.20;0.88;;;;;;;;;;4997118;28;20549;-47
2022/05/15 05:45:35;;;;;;;2.78;1.10;;;;;;;;;;5000195;28;20513;-50
2022/05/15 05:48:08;;;;;;;2.40;0.98;;;;;;;;;;4999603;28;20050;-44
2022/05/15 05:50:36;;;;;;;3.03;0.93;;;;;;;;;;4982704;28;20051;-54
2022/05/15 05:53:02;;;;;;;2.97;1.13;;;;;;;;;;4998646;28;20050;-48
2022/05/15 05:55:36;;;;;;;3.03;0.85;;;;;;;;;;4996935;28;20046;-49
2022/05/15 05:58:02;;;;;;;2.03;0.90;;;;;;;;;;4997766;28;20082;-50
2022/05/15 06:00:33;;;;;;;0.93;0.57;;;;;;;;;;4998590;28;21369;-47
2022/05/15 06:05:58;;;;;;;2.75;1.00;;;;;;;;;;4998362;28;20054;-51
2022/05/15 06:08:31;;;;;;;2.20;0.80;;;;;;;;;;4994189;28;20051;-51
2022/05/15 06:10:58;;;;;;;2.22;1.10;;;;;;;;;;4997408;28;20053;-52
2022/05/15 06:13:25;;;;;;;3.45;0.98;;;;;;;;;;4997767;28;20050;-55
2022/05/15 06:15:58;;;;;;;2.30;1.00;;;;;;;;;;4995841;28;20583;-55
2022/05/15 06:18:25;;;;;;;3.45;1.00;;;;;;;;;;4978986;28;20073;-55
2022/05/15 06:20:51;;;;;;;3.13;1.42;;;;;;;;;;4996913;28;20070;-53
2022/05/15 06:23:25;;;;;;;1.80;0.90;;;;;;;;;;4997447;28;20081;-50
2022/05/15 06:25:52;;;;;;;4.10;1.10;;;;;;;;;;4998307;28;20039;-51
2022/05/15 06:28:19;;;;;;;1.73;1.25;;;;;;;;;;4998280;28;20081;-54
2022/05/15 06:30:52;;;;;;;6.15;1.27;;;;;;;;;;4999541;28;20733;-53
2022/05/15 06:33:19;;;;;;;3.08;1.45;;;;;;;;;;4998954;28;20057;-53
2022/05/15 06:35:45;;;;;;;2.92;1.10;;;;;;;;;;4993597;28;20065;-54
2022/05/15 06:38:18;;;;;;;2.50;1.20;;;;;;;;;;4998811;28;20572;-51
2022/05/15 06:40:45;;;;;;;3.53;1.48;;;;;;;;;;4998472;28;20134;-52
2022/05/15 06:43:12;;;;;;;1.58;0.90;;;;;;;;;;5004999;28;20076;-55
2022/05/15 06:45:47;;;;;;;1.88;0.93;;;;;;;;;;5006373;28;20140;-54
2022/05/15 06:48:15;;;;;;;3.15;1.02;;;;;;;;;;5003760;28;20048;-51
2022/05/15 06:50:41;;;;;;;1.55;0.90;;;;;;;;;;5005108;28;20109;-53
2022/05/15 06:53:15;;;;;;;4.70;0.95;;;;;;;;;;5004780;28;20131;-45
2022/05/15 06:57:28;;;;;;;1.75;0.60;;;;;;;;;;5003943;28;20573;-46
2022/05/15 06:58:35;;;;;;;2.70;1.00;;;;;;;;;;4998784;28;20046;-50
2022/05/15 07:01:09;;;;;;;3.67;0.88;;;;;;;;;;4998699;28;20093;-49
2022/05/15 07:03:49;;;;;;;2.03;1.13;;;;;;;;;;4998712;28;20042;-46
2022/05/15 07:06:18;;;;;;;4.10;1.23;;;;;;;;;;4999364;28;20513;-44
2022/05/15 07:08:51;;;;;;;2.10;0.80;;;;;;;;;;5001967;28;20569;-57
2022/05/15 07:11:18;;;;;;;4.82;2.60;;;;;;;;;;4998196;28;20157;-53
2022/05/15 07:13:44;;;;;;;1.73;1.00;;;;;;;;;;4998822;28;20571;-51
2022/05/15 07:16:17;;;;;;;1.10;0.80;;;;;;;;;;5002490;28;20132;-53
2022/05/15 07:18:44;;;;;;;1.02;0.40;;;;;;;;;;5000439;28;20153;-51
2022/05/15 07:21:10;;;;;;;1.35;0.80;;;;;;;;;;4998838;28;20042;-51
2022/05/15 07:23:44;;;;;;;1.95;0.50;;;;;;;;;;4999194;28;20080;-52
2022/05/15 07:26:10;;;;;;;5.47;1.05;;;;;;;;;;4995737;28;20074;-53
2022/05/15 07:28:37;;;;;;;2.55;0.70;;;;;;;;;;5000575;28;20050;-50
2022/05/15 07:31:10;;;;;;;1.85;0.50;;;;;;;;;;5002755;28;20073;-48
2022/05/15 07:33:37;;;;;;;2.50;0.82;;;;;;;;;;5002783;28;20081;-48
2022/05/15 07:36:04;;;;;;;0.75;0.43;;;;;;;;;;5000499;28;20054;-44
2022/05/15 07:38:37;;;;;;;1.23;0.80;;;;;;;;;;4996552;28;20058;-44
2022/05/15 07:41:04;;;;;;;1.40;0.63;;;;;;;;;;5000179;28;20548;-51
2022/05/15 07:43:32;;;;;;;2.22;0.80;;;;;;;;;;4999402;28;20041;-50
2022/05/15 07:46:05;;;;;;;4.47;1.10;;;;;;;;;;5004298;28;20054;-52
2022/05/15 07:48:32;;;;;;;2.97;1.85;;;;;;;;;;4997086;28;20081;-46
2022/05/15 07:50:58;;;;;;;0.98;0.57;;;;;;;;;;5001529;28;20090;-46
2022/05/15 07:53:31;;;;;;;1.85;0.88;;;;;;;;;;4999041;28;20651;-48
2022/05/15 07:56:09;;;;;;;2.35;0.60;;;;;;;;;;5003100;28;20050;-45
2022/05/15 07:58:43;;;;;;;1.20;0.70;;;;;;;;;;4998341;28;20092;-47
2022/05/15 08:01:16;;;;;;;3.00;0.65;;;;;;;;;;5000408;28;20100;-46
2022/05/15 08:03:49;;;;;;;1.17;0.60;;;;;;;;;;5000186;28;20062;-57
2022/05/15 08:09:09;;;;;;;4.07;0.95;;;;;;;;;;5001539;28;20125;-50
2022/05/15 08:11:36;;;;;;;2.33;0.75;;;;;;;;;;4997377;28;20058;-54
2022/05/15 08:14:08;;;;;;;1.50;0.82;;;;;;;;;;4997764;28;20571;-52
2022/05/15 08:16:41;;;;;;;1.45;0.75;;;;;;;;;;4990556;28;20425;-48
2022/05/15 08:25:01;;;;;;;1.08;0.77;;;;;;;;;;4996005;28;20121;-53
2022/05/15 08:27:34;;;;;;;2.00;0.60;;;;;;;;;;4994342;28;20092;-55
2022/05/15 08:30:01;;;;;;;0.98;0.57;;;;;;;;;;4997345;28;20076;-56
2022/05/15 08:32:27;;;;;;;3.67;0.50;;;;;;;;;;5000174;28;20058;-54
2022/05/15 08:35:01;;;;;;;1.27;0.60;;;;;;;;;;5003363;28;20093;-55
2022/05/15 08:37:27;;;;;;;0.50;0.50;;;;;;;;;;4999394;28;20505;-54
2022/05/15 08:39:53;;;;;;;0.85;0.60;;;;;;;;;;4997590;28;20364;-54
2022/05/15 08:42:29;;;;;;;2.60;0.60;;;;;;;;;;4996081;28;20050;-52
2022/05/15 08:44:58;;;;;;;1.48;0.50;;;;;;;;;;4997908;28;20101;-51
2022/05/15 08:47:32;;;;;;;1.65;0.68;;;;;;;;;;4995961;28;20478;-50
2022/05/15 08:50:14;;;;;;;1.80;0.65;;;;;;;;;;4999078;28;20046;-51
2022/05/15 08:53:02;;;;;;;1.50;0.70;;;;;;;;;;4997919;28;20451;-45
2022/05/15 08:55:47;;;;;;;1.05;0.57;;;;;;;;;;4994990;28;20628;-49
2022/05/15 08:58:18;;;;;;;2.60;0.80;;;;;;;;;;4999792;28;20050;-50
2022/05/15 09:04:10;;;;;;;0.95;0.70;;;;;;;;;;4999127;28;20046;-53
2022/05/15 09:06:50;;;;;;;1.90;0.75;;;;;;;;;;4994501;28;20133;-53
2022/05/15 09:09:23;;;;;;;1.75;0.55;;;;;;;;;;4993442;28;20084;-53
2022/05/15 09:12:03;;;;;;;1.15;0.40;;;;;;;;;;4997956;28;20128;-55
2022/05/15 09:15:00;;;;;;;2.25;0.60;;;;;;;;;;4995019;28;20057;-55
2022/05/15 09:17:45;;;;;;;0.60;0.50;;;;;;;;;;4997595;28;20096;-54
2022/05/15 09:20:14;;;;;;;0.55;0.50;;;;;;;;;;4994802;28;20073;-52
2022/05/15 09:22:50;;;;;;;1.33;0.77;;;;;;;;;;5000338;28;20046;-57
2022/05/15 09:25:21;;;;;;;3.15;0.68;;;;;;;;;;4998939;28;20046;-51
2022/05/15 09:27:59;;;;;;;3.75;0.70;;;;;;;;;;4999551;28;20073;-54
2022/05/15 09:30:31;;;;;;;0.98;0.60;;;;;;;;;;4997320;28;20111;-55
2022/05/15 09:33:14;;;;;;;0.90;0.57;;;;;;;;;;4997893;28;20093;-52
2022/05/15 09:35:43;;;;;;;3.63;0.77;;;;;;;;;;5001815;28;20092;-47
2022/05/15 09:38:27;;;;;;;1.08;0.55;;;;;;;;;;4997620;28;20176;-54
2022/05/15 09:43:51;;;;;;;2.38;0.75;;;;;;;;;;5000174;28;20049;-47
2022/05/15 09:46:18;;;;;;;1.27;0.40;;;;;;;;;;4994648;28;20077;-45
2022/05/15 09:49:03;;;;;;;3.10;0.57;;;;;;;;;;4995235;28;20493;-49
2022/05/15 09:51:36;;;;;;;1.85;0.50;;;;;;;;;;4998902;28;20096;-48
2022/05/15 09:54:03;;;;;;;0.98;0.50;;;;;;;;;;4996736;28;20125;-51
2022/05/15 09:56:31;;;;;;;0.65;0.60;;;;;;;;;;4991550;28;20109;-52
2022/05/15 09:59:04;;;;;;;0.77;0.60;;;;;;;;;;4997526;28;20523;-51
2022/05/15 10:01:47;;;;;;;1.02;0.50;;;;;;;;;;5000592;28;20101;-48
2022/05/15 10:04:25;;;;;;;1.17;0.73;;;;;;;;;;4999705;28;20048;-51
2022/05/15 10:07:03;;;;;;;0.65;0.45;;;;;;;;;;4997616;28;20078;-50
2022/05/15 10:10:17;;;;;;;0.52;0.50;;;;;;;;;;4996273;28;20132;-47
2022/05/15 10:12:46;;;;;;;1.25;0.50;;;;;;;;;;4997148;28;20061;-51
2022/05/15 10:15:21;;;;;;;2.72;0.80;;;;;;;;;;4993475;28;20132;-53
2022/05/15 10:17:52;;;;;;;0.75;0.50;;;;;;;;;;5003707;28;20042;-50
2022/05/15 10:20:25;;;;;;;12.80;1.50;;;;;;;;;;5003857;28;20080;-51
2022/05/15 10:23:10;;;;;;;7.38;2.13;;;;;;;;;;4998152;28;20046;-54
2022/05/15 10:25:37;;;;;;;1.30;0.52;;;;;;;;;;4996528;28;20137;-51
2022/05/15 10:28:13;;;;;;;1.52;0.68;;;;;;;;;;4999397;28;20088;-53
2022/05/15 10:30:45;;;;;;;1.90;0.75;;;;;;;;;;5002773;28;20054;-54
2022/05/15 10:33:19;;;;;;;1.52;0.68;;;;;;;;;;5003456;28;20053;-55
2022/05/15 10:36:00;;;;;;;1.67;0.80;;;;;;;;;;5002059;28;20524;-53
2022/05/15 10:38:45;;;;;;;2.50;0.63;;;;;;;;;;5001017;28;20081;-58
2022/05/15 10:41:15;;;;;;;2.72;0.75;;;;;;;;;;4999388;28;20077;-59
2022/05/15 10:43:58;;;;;;;1.15;0.60;;;;;;;;;;5003516;28;20089;-58
2022/05/15 10:46:34;;;;;;;1.83;0.63;;;;;;;;;;4995339;28;20054;-59
2022/05/15 10:49:26;;;;;;;0.98;0.57;;;;;;;;;;5001860;28;20050;-58
2022/05/15 10:52:12;;;;;;;4.03;0.50;;;;;;;;;;5000584;28;20498;-58
2022/05/15 10:57:41;;;;;;;1.77;0.50;;;;;;;;;;4998084;28;20429;-54
2022/05/15 11:00:24;;;;;;;1.13;0.60;;;;;;;;;;4999609;28;20058;-49
2022/05/15 11:03:15;;;;;;;1.75;0.52;;;;;;;;;;5003157;28;20062;-52
2022/05/15 11:06:00;;;;;;;1.50;0.57;;;;;;;;;;5000219;28;20588;-49
2022/05/15 11:08:33;;;;;;;3.17;0.60;;;;;;;;;;4998671;28;20437;-52
2022/05/15 11:11:12;;;;;;;1.88;0.68;;;;;;;;;;5002887;28;20473;-52
2022/05/15 11:13:55;;;;;;;2.88;0.65;;;;;;;;;;5000129;28;20141;-53
2022/05/15 11:16:37;;;;;;;3.28;0.40;;;;;;;;;;4997346;28;20107;-51
2022/05/15 11:19:04;;;;;;;1.35;0.70;;;;;;;;;;5001496;28;20057;-48
2022/05/15 11:21:54;;;;;;;1.73;0.73;;;;;;;;;;5000433;28;20096;-53
2022/05/15 11:24:31;;;;;;;0.95;0.68;;;;;;;;;;5000023;28;20104;-50
2022/05/15 11:27:08;;;;;;;0.20;0.20;;;;;;;;;;4996269;28;20318;-52
2022/05/15 11:29:37;;;;;;;0.93;0.60;;;;;;;;;;4995866;28;20149;-53
2022/05/15 11:32:24;;;;;;;1.48;0.50;;;;;;;;;;4999598;28;20128;-53
2022/05/15 11:35:10;;;;;;;3.45;2.10;;;;;;;;;;5000030;28;20408;-52
2022/05/15 11:37:42;;;;;;;3.33;2.30;;;;;;;;;;4998449;28;20054;-49
2022/05/15 11:40:34;;;;;;;3.03;1.10;;;;;;;;;;4996170;28;20062;-48
2022/05/15 11:43:19;;;;;;;4.00;0.68;;;;;;;;;;5000037;28;20077;-53
2022/05/15 11:45:54;;;;;;;2.22;0.95;;;;;;;;;;4999777;28;20053;-53
2022/05/15 11:48:22;;;;;;;1.85;0.88;;;;;;;;;;4998359;28;20072;-52
2022/05/15 11:50:54;;;;;;;3.28;0.80;;;;;;;;;;4991004;28;20109;-51
2022/05/15 11:53:27;;;;;;;1.13;0.50;;;;;;;;;;4999869;28;20089;-47
2022/05/15 11:55:54;;;;;;;2.03;0.77;;;;;;;;;;4997517;28;20485;-54
2022/05/15 11:58:26;;;;;;;2.65;0.80;;;;;;;;;;5000009;28;20097;-52
2022/05/15 12:01:06;;;;;;;5.63;0.85;;;;;;;;;;5001080;28;20085;-53
2022/05/15 12:03:39;;;;;;;1.83;0.68;;;;;;;;;;5002972;28;20234;-53
2022/05/15 12:06:14;;;;;;;1.08;0.40;;;;;;;;;;5001744;28;20046;-50
2022/05/15 12:08:41;;;;;;;2.20;0.80;;;;;;;;;;5001970;28;20116;-48
2022/05/15 12:11:26;;;;;;;1.45;0.70;;;;;;;;;;5004477;28;20096;-49
2022/05/15 12:14:19;;;;;;;1.98;0.63;;;;;;;;;;5000145;28;20050;-44
2022/05/15 12:17:03;;;;;;;1.52;0.55;;;;;;;;;;5001249;28;20128;-49
2022/05/15 12:19:38;;;;;;;1.27;0.70;;;;;;;;;;4997197;28;20061;-47
2022/05/15 12:22:08;;;;;;;2.00;0.88;;;;;;;;;;4999154;28;20078;-48
2022/05/15 12:24:36;;;;;;;2.35;1.05;;;;;;;;;;4998032;28;20068;-48
2022/05/15 12:27:09;;;;;;;1.85;1.00;;;;;;;;;;4997564;28;20196;-48
2022/05/15 12:29:47;;;;;;;1.58;0.57;;;;;;;;;;4998971;28;20074;-48
2022/05/15 12:32:27;;;;;;;1.75;0.63;;;;;;;;;;4998359;28;20092;-54
2022/05/15 12:34:53;;;;;;;1.48;0.68;;;;;;;;;;4999062;28;20734;-52
2022/05/15 12:37:25;;;;;;;1.50;0.63;;;;;;;;;;5000387;28;20050;-52
2022/05/15 12:40:00;;;;;;;1.20;0.45;;;;;;;;;;4999755;28;20069;-51
2022/05/15 12:42:35;;;;;;;1.42;0.50;;;;;;;;;;4991504;28;20048;-51
2022/05/15 12:45:11;;;;;;;0.57;0.40;;;;;;;;;;4993679;28;20494;-51
2022/05/15 12:47:39;;;;;;;1.80;0.82;;;;;;;;;;4997740;28;20696;-50
2022/05/15 12:50:20;;;;;;;1.90;0.70;;;;;;;;;;4996170;28;20136;-58
2022/05/15 12:52:55;;;;;;;0.85;0.52;;;;;;;;;;4995954;28;20139;-56
2022/05/15 12:55:24;;;;;;;2.65;0.82;;;;;;;;;;4997197;28;20529;-51
2022/05/15 12:57:52;;;;;;;0.85;0.45;;;;;;;;;;4995319;28;20074;-51
2022/05/15 13:00:28;;;;;;;1.50;0.60;;;;;;;;;;4994256;28;20135;-46
2022/05/15 13:03:06;;;;;;;1.10;0.47;;;;;;;;;;4993346;28;20054;-50
2022/05/15 13:05:51;;;;;;;2.53;0.73;;;;;;;;;;4995764;28;20136;-47
2022/05/15 13:08:17;;;;;;;1.17;0.68;;;;;;;;;;4994842;28;20140;-50
2022/05/15 13:11:11;;;;;;;0.65;0.50;;;;;;;;;;4995784;28;20120;-47
2022/05/15 13:13:38;;;;;;;1.65;0.68;;;;;;;;;;4997269;28;20135;-47
2022/05/15 13:16:15;;;;;;;0.95;0.60;;;;;;;;;;4993470;28;20109;-51
2022/05/15 13:18:44;;;;;;;1.02;0.50;;;;;;;;;;4996951;28;20074;-50
2022/05/15 13:21:19;;;;;;;1.65;0.50;;;;;;;;;;4995380;28;20049;-51
2022/05/15 13:23:52;;;;;;;3.15;0.75;;;;;;;;;;4995922;28;20045;-46
2022/05/15 13:26:27;;;;;;;1.42;0.60;;;;;;;;;;4993485;28;20149;-49
2022/05/15 13:29:01;;;;;;;0.75;0.40;;;;;;;;;;4994938;28;20078;-52
2022/05/15 13:31:28;;;;;;;;;;;;;;;;;;4995067;28;20053;-52
2022/05/15 13:33:55;;;;;;;2.25;0.70;;;;;;;;;;4998099;28;19922;-51
2022/05/15 13:36:29;;;;;;;1.58;0.50;;;;;;;;;;5001175;28;20525;-53
2022/05/15 13:44:38;;;;;;;1.08;0.38;;;;;;;;;;4995126;28;20081;-52
2022/05/15 13:47:14;;;;;;;0.88;0.50;;;;;;;;;;4994274;28;20176;-54
2022/05/15 13:49:42;;;;;;;0.73;0.60;;;;;;;;;;4994888;28;20093;-54
2022/05/15 13:52:23;;;;;;;1.05;0.50;;;;;;;;;;4994068;28;20129;-53
2022/05/15 13:54:58;;;;;;;0.52;0.50;;;;;;;;;;4993820;28;20054;-50
2022/05/15 13:57:25;;;;;;;2.03;0.80;;;;;;;;;;4994286;28;20108;-54
2022/05/15 13:59:57;;;;;;;0.80;0.60;;;;;;;;;;4992807;28;20101;-53
2022/05/15 14:03:04;;;;;;;0.85;0.50;;;;;;;;;;4995806;28;20051;-54
2022/05/15 14:05:42;;;;;;;0.85;0.50;;;;;;;;;;4996852;28;20093;-54
2022/05/15 14:08:15;;;;;;;;;;;;;;;;;;4993794;28;20050;-48
2022/05/15 14:10:42;;;;;;;1.27;0.32;;;;;;;;;;4998932;28;19934;-51
2022/05/15 14:13:09;;;;;;;3.87;0.63;;;;;;;;;;4992658;28;20093;-47
2022/05/15 14:15:43;;;;;;;0.50;0.40;;;;;;;;;;4998257;28;20073;-47
2022/05/15 14:18:30;;;;;;;1.70;0.68;;;;;;;;;;4994853;28;20438;-50
2022/05/15 14:21:10;;;;;;;1.45;0.52;;;;;;;;;;4997523;28;20046;-49
2022/05/15 14:23:37;;;;;;;0.77;0.50;;;;;;;;;;4998229;28;20378;-44
2022/05/15 14:26:11;;;;;;;0.35;0.30;;;;;;;;;;4994994;28;20082;-51
2022/05/15 14:28:41;;;;;;;1.42;0.57;;;;;;;;;;4996914;28;20069;-51
2022/05/15 14:31:11;;;;;;;0.60;0.32;;;;;;;;;;4998992;28;20081;-57
2022/05/15 14:33:46;;;;;;;0.88;0.28;;;;;;;;;;4999000;28;20410;-58
2022/05/15 14:36:18;;;;;;;0.65;0.35;;;;;;;;;;4998146;28;20073;-58
2022/05/15 14:38:44;;;;;;;1.50;0.90;;;;;;;;;;4995378;28;20497;-57
2022/05/15 14:41:18;;;;;;;1.17;0.50;;;;;;;;;;4999107;28;20081;-59
2022/05/15 14:43:45;;;;;;;0.85;0.30;;;;;;;;;;4997589;28;20081;-57
2022/05/15 14:46:19;;;;;;;0.98;0.52;;;;;;;;;;4995588;28;20082;-52
2022/05/15 14:48:53;;;;;;;1.45;0.40;;;;;;;;;;4999056;28;20061;-57
2022/05/15 14:51:21;;;;;;;1.08;0.35;;;;;;;;;;4998447;28;20050;-57
2022/05/15 14:53:48;;;;;;;1.15;0.50;;;;;;;;;;4998104;28;20117;-56
2022/05/15 14:56:21;;;;;;;1.45;0.45;;;;;;;;;;4994058;28;20137;-57
2022/05/15 14:58:56;;;;;;;1.23;0.35;;;;;;;;;;5000884;28;20058;-57
2022/05/15 15:01:42;;;;;;;0.60;0.22;;;;;;;;;;4999419;28;20096;-57
2022/05/15 15:04:15;;;;;;;0.30;0.25;;;;;;;;;;4999635;28;20129;-58
2022/05/15 15:06:49;;;;;;;0.30;0.20;;;;;;;;;;5005007;28;20062;-54
2022/05/15 15:09:16;;;;;;;0.60;0.30;;;;;;;;;;5001548;28;20087;-54
2022/05/15 15:11:44;;;;;;;0.35;0.20;;;;;;;;;;5004542;28;20050;-53
2022/05/15 15:14:19;;;;;;;1.08;0.20;;;;;;;;;;4997463;28;20109;-53
2022/05/15 15:16:47;;;;;;;0.90;0.50;;;;;;;;;;4999551;28;20050;-50
2022/05/15 15:19:15;;;;;;;2.45;0.55;;;;;;;;;;5000197;28;20050;-54
2022/05/15 15:21:48;;;;;;;0.95;0.40;;;;;;;;;;5003311;28;20045;-53
2022/05/15 15:24:15;;;;;;;1.25;0.30;;;;;;;;;;5000468;28;20160;-49
2022/05/15 15:26:42;;;;;;;0.38;0.28;;;;;;;;;;5001544;28;20150;-58
2022/05/15 15:29:18;;;;;;;0.13;0.13;;;;;;;;;;5002443;28;20092;-57
2022/05/15 15:31:45;;;;;;;0.13;0.10;;;;;;;;;;4998875;28;20058;-57
2022/05/15 15:34:13;;;;;;;2.65;0.40;;;;;;;;;;4999204;28;20053;-57
2022/05/15 15:38:14;;;;;;;0.60;0.30;;;;;;;;;;5001651;28;20152;-57
2022/05/15 15:39:35;;;;;;;0.80;0.55;;;;;;;;;;5004113;28;20096;-57